sensor_id;sensor_type;location;lat;lon;timestamp;temperature;humidity
19348;DHT22;9810;52.480;9.806;2023-07-29T00:01:43;17.80;99.90
19348;DHT22;9810;52.480;9.806;2023-07-29T00:04:11;17.80;99.90
19348;DHT22;9810;52.480;9.806;2023-07-29T00:06:39;17.90;99.90
19348;DHT22;9810;52.480;9.806;2023-07-29T00:09:06;17.90;99.90
19348;DHT22;9810;52.480;9.806;2023-07-29T00:11:34;17.90;99.90
19348;DHT22;9810;52.480;9.806;2023-07-29T00:14:03;17.90;99.90
19348;DHT22;9810;52.480;9.806;2023-07-29T00:16:30;18.00;99.90
19348;DHT22;9810;52.480;9.806;2023-07-29T00:18:58;17.90;99.90
19348;DHT22;9810;52.480;9.806;2023-07-29T00:21:25;17.90;99.90
19348;DHT22;9810;52.480;9.806;2023-07-29T00:23:52;17.90;99.90
19348;DHT22;9810;52.480;9.806;2023-07-29T00:26:23;17.80;99.90
19348;DHT22;9810;52.480;9.806;2023-07-29T00:28:51;17.70;99.90
19348;DHT22;9810;52.480;9.806;2023-07-29T00:31:20;17.60;99.90
19348;DHT22;9810;52.480;9.806;2023-07-29T00:33:47;17.70;99.90
19348;DHT22;9810;52.480;9.806;2023-07-29T00:36:15;17.70;99.90
19348;DHT22;9810;52.480;9.806;2023-07-29T00:38:42;17.80;99.90
19348;DHT22;9810;52.480;9.806;2023-07-29T00:41:10;17.90;99.90
19348;DHT22;9810;52.480;9.806;2023-07-29T00:43:39;17.90;99.90
19348;DHT22;9810;52.480;9.806;2023-07-29T00:46:07;17.80;99.90
19348;DHT22;9810;52.480;9.806;2023-07-29T00:48:37;17.70;99.90
19348;DHT22;9810;52.480;9.806;2023-07-29T00:51:05;17.70;99.90
19348;DHT22;9810;52.480;9.806;2023-07-29T00:53:32;17.50;99.90
19348;DHT22;9810;52.480;9.806;2023-07-29T00:56:00;17.60;99.90
19348;DHT22;9810;52.480;9.806;2023-07-29T00:58:27;17.40;99.90
19348;DHT22;9810;52.480;9.806;2023-07-29T01:00:55;17.30;99.90
19348;DHT22;9810;52.480;9.806;2023-07-29T01:03:23;17.30;99.90
19348;DHT22;9810;52.480;9.806;2023-07-29T01:06:05;17.30;99.90
19348;DHT22;9810;52.480;9.806;2023-07-29T01:08:44;17.20;99.90
19348;DHT22;9810;52.480;9.806;2023-07-29T01:11:24;17.30;99.90
19348;DHT22;9810;52.480;9.806;2023-07-29T01:13:59;17.20;99.90
19348;DHT22;9810;52.480;9.806;2023-07-29T01:16:32;17.20;99.90
19348;DHT22;9810;52.480;9.806;2023-07-29T01:19:05;17.20;99.90
19348;DHT22;9810;52.480;9.806;2023-07-29T01:21:35;17.10;99.90
19348;DHT22;9810;52.480;9.806;2023-07-29T01:24:05;17.10;99.90
19348;DHT22;9810;52.480;9.806;2023-07-29T01:26:32;17.10;99.90
19348;DHT22;9810;52.480;9.806;2023-07-29T01:29:00;17.30;99.90
19348;DHT22;9810;52.480;9.806;2023-07-29T01:31:31;17.30;99.90
19348;DHT22;9810;52.480;9.806;2023-07-29T01:34:06;17.20;99.90
19348;DHT22;9810;52.480;9.806;2023-07-29T01:36:37;17.30;99.90
19348;DHT22;9810;52.480;9.806;2023-07-29T01:39:08;17.40;99.90
19348;DHT22;9810;52.480;9.806;2023-07-29T01:41:37;17.50;99.90
19348;DHT22;9810;52.480;9.806;2023-07-29T01:44:05;17.40;99.90
19348;DHT22;9810;52.480;9.806;2023-07-29T01:46:33;17.60;99.90
19348;DHT22;9810;52.480;9.806;2023-07-29T01:49:01;17.60;99.90
19348;DHT22;9810;52.480;9.806;2023-07-29T01:51:28;17.50;99.90
19348;DHT22;9810;52.480;9.806;2023-07-29T01:53:55;17.50;99.90
19348;DHT22;9810;52.480;9.806;2023-07-29T01:56:26;17.40;99.90
19348;DHT22;9810;52.480;9.806;2023-07-29T01:58:53;17.30;99.90
19348;DHT22;9810;52.480;9.806;2023-07-29T02:01:20;17.40;99.90
19348;DHT22;9810;52.480;9.806;2023-07-29T02:03:48;17.50;99.90
19348;DHT22;9810;52.480;9.806;2023-07-29T02:06:20;17.50;99.90
19348;DHT22;9810;52.480;9.806;2023-07-29T02:08:48;17.60;99.90
19348;DHT22;9810;52.480;9.806;2023-07-29T02:11:15;17.70;99.90
19348;DHT22;9810;52.480;9.806;2023-07-29T02:13:44;17.80;99.90
19348;DHT22;9810;52.480;9.806;2023-07-29T02:16:11;17.80;99.90
19348;DHT22;9810;52.480;9.806;2023-07-29T02:18:39;17.90;99.90
19348;DHT22;9810;52.480;9.806;2023-07-29T02:21:06;18.00;99.90
19348;DHT22;9810;52.480;9.806;2023-07-29T02:23:33;18.00;99.90
19348;DHT22;9810;52.480;9.806;2023-07-29T02:26:01;18.00;99.90
19348;DHT22;9810;52.480;9.806;2023-07-29T02:28:28;18.10;99.90
19348;DHT22;9810;52.480;9.806;2023-07-29T02:31:14;18.20;99.90
19348;DHT22;9810;52.480;9.806;2023-07-29T02:33:42;18.20;99.90
19348;DHT22;9810;52.480;9.806;2023-07-29T02:36:12;18.20;99.90
19348;DHT22;9810;52.480;9.806;2023-07-29T02:38:39;18.30;99.90
19348;DHT22;9810;52.480;9.806;2023-07-29T02:41:07;18.30;99.90
19348;DHT22;9810;52.480;9.806;2023-07-29T02:43:35;18.30;99.90
19348;DHT22;9810;52.480;9.806;2023-07-29T02:46:03;18.30;99.90
19348;DHT22;9810;52.480;9.806;2023-07-29T02:48:32;18.30;99.90
19348;DHT22;9810;52.480;9.806;2023-07-29T02:50:59;18.30;99.90
19348;DHT22;9810;52.480;9.806;2023-07-29T02:53:27;18.30;99.90
19348;DHT22;9810;52.480;9.806;2023-07-29T02:55:54;18.40;99.90
19348;DHT22;9810;52.480;9.806;2023-07-29T02:58:21;18.30;99.90
19348;DHT22;9810;52.480;9.806;2023-07-29T03:00:49;18.40;99.90
19348;DHT22;9810;52.480;9.806;2023-07-29T03:03:16;18.40;99.90
19348;DHT22;9810;52.480;9.806;2023-07-29T03:05:46;18.30;99.90
19348;DHT22;9810;52.480;9.806;2023-07-29T03:08:14;18.30;99.90
19348;DHT22;9810;52.480;9.806;2023-07-29T03:10:40;18.30;99.90
19348;DHT22;9810;52.480;9.806;2023-07-29T03:13:08;18.30;99.90
19348;DHT22;9810;52.480;9.806;2023-07-29T03:15:35;18.30;99.90
19348;DHT22;9810;52.480;9.806;2023-07-29T03:18:03;18.30;99.90
19348;DHT22;9810;52.480;9.806;2023-07-29T03:20:30;18.30;99.90
19348;DHT22;9810;52.480;9.806;2023-07-29T03:22:59;18.30;99.90
19348;DHT22;9810;52.480;9.806;2023-07-29T03:25:26;18.30;99.90
19348;DHT22;9810;52.480;9.806;2023-07-29T03:27:54;18.30;99.90
19348;DHT22;9810;52.480;9.806;2023-07-29T03:30:22;18.40;99.90
19348;DHT22;9810;52.480;9.806;2023-07-29T03:32:49;18.40;99.90
19348;DHT22;9810;52.480;9.806;2023-07-29T03:35:17;18.40;99.90
19348;DHT22;9810;52.480;9.806;2023-07-29T03:37:44;18.40;99.90
19348;DHT22;9810;52.480;9.806;2023-07-29T03:40:14;18.40;99.90
19348;DHT22;9810;52.480;9.806;2023-07-29T03:42:41;18.40;99.90
19348;DHT22;9810;52.480;9.806;2023-07-29T03:45:09;18.40;99.90
19348;DHT22;9810;52.480;9.806;2023-07-29T03:47:36;18.40;99.90
19348;DHT22;9810;52.480;9.806;2023-07-29T03:50:03;18.50;99.90
19348;DHT22;9810;52.480;9.806;2023-07-29T03:52:31;18.50;99.90
19348;DHT22;9810;52.480;9.806;2023-07-29T03:54:59;18.50;99.90
19348;DHT22;9810;52.480;9.806;2023-07-29T03:57:28;18.50;99.90
19348;DHT22;9810;52.480;9.806;2023-07-29T03:59:56;18.50;99.90
19348;DHT22;9810;52.480;9.806;2023-07-29T04:02:23;18.50;99.90
19348;DHT22;9810;52.480;9.806;2023-07-29T04:04:51;18.50;99.90
19348;DHT22;9810;52.480;9.806;2023-07-29T04:07:18;18.50;99.90
19348;DHT22;9810;52.480;9.806;2023-07-29T04:09:45;18.50;99.90
19348;DHT22;9810;52.480;9.806;2023-07-29T04:12:13;18.50;99.90
19348;DHT22;9810;52.480;9.806;2023-07-29T04:14:42;18.50;99.90
19348;DHT22;9810;52.480;9.806;2023-07-29T04:17:09;18.40;99.90
19348;DHT22;9810;52.480;9.806;2023-07-29T04:19:36;18.50;99.90
19348;DHT22;9810;52.480;9.806;2023-07-29T04:22:04;18.50;99.90
19348;DHT22;9810;52.480;9.806;2023-07-29T04:24:32;18.50;99.90
19348;DHT22;9810;52.480;9.806;2023-07-29T04:26:59;18.50;99.90
19348;DHT22;9810;52.480;9.806;2023-07-29T04:29:27;18.50;99.90
19348;DHT22;9810;52.480;9.806;2023-07-29T04:31:56;18.50;99.90
19348;DHT22;9810;52.480;9.806;2023-07-29T04:34:23;18.50;99.90
19348;DHT22;9810;52.480;9.806;2023-07-29T04:36:50;18.40;99.90
19348;DHT22;9810;52.480;9.806;2023-07-29T04:39:18;18.50;99.90
19348;DHT22;9810;52.480;9.806;2023-07-29T04:41:45;18.50;99.90
19348;DHT22;9810;52.480;9.806;2023-07-29T04:44:13;18.60;99.90
19348;DHT22;9810;52.480;9.806;2023-07-29T04:46:40;18.60;99.90
19348;DHT22;9810;52.480;9.806;2023-07-29T04:49:09;18.60;99.90
19348;DHT22;9810;52.480;9.806;2023-07-29T04:51:37;18.60;99.90
19348;DHT22;9810;52.480;9.806;2023-07-29T04:54:04;18.60;99.90
19348;DHT22;9810;52.480;9.806;2023-07-29T04:56:31;18.60;99.90
19348;DHT22;9810;52.480;9.806;2023-07-29T04:58:59;18.60;99.90
19348;DHT22;9810;52.480;9.806;2023-07-29T05:01:26;18.70;99.90
19348;DHT22;9810;52.480;9.806;2023-07-29T05:03:53;18.60;99.90
19348;DHT22;9810;52.480;9.806;2023-07-29T05:06:22;18.60;99.90
19348;DHT22;9810;52.480;9.806;2023-07-29T05:08:49;18.50;99.90
19348;DHT22;9810;52.480;9.806;2023-07-29T05:11:16;18.60;99.90
19348;DHT22;9810;52.480;9.806;2023-07-29T05:13:44;18.60;99.90
19348;DHT22;9810;52.480;9.806;2023-07-29T05:16:11;18.60;99.90
19348;DHT22;9810;52.480;9.806;2023-07-29T05:18:39;18.60;99.90
19348;DHT22;9810;52.480;9.806;2023-07-29T05:21:06;18.60;99.90
19348;DHT22;9810;52.480;9.806;2023-07-29T05:23:35;18.60;99.90
19348;DHT22;9810;52.480;9.806;2023-07-29T05:26:03;18.60;99.90
19348;DHT22;9810;52.480;9.806;2023-07-29T05:28:30;18.60;99.90
19348;DHT22;9810;52.480;9.806;2023-07-29T05:31:00;18.60;99.90
19348;DHT22;9810;52.480;9.806;2023-07-29T05:33:28;18.60;99.90
19348;DHT22;9810;52.480;9.806;2023-07-29T05:35:55;18.60;99.90
19348;DHT22;9810;52.480;9.806;2023-07-29T05:38:22;18.60;99.90
19348;DHT22;9810;52.480;9.806;2023-07-29T05:40:51;18.60;99.90
19348;DHT22;9810;52.480;9.806;2023-07-29T05:43:19;18.70;99.90
19348;DHT22;9810;52.480;9.806;2023-07-29T05:45:46;18.70;99.90
19348;DHT22;9810;52.480;9.806;2023-07-29T05:48:14;18.80;99.90
19348;DHT22;9810;52.480;9.806;2023-07-29T05:50:41;18.90;99.90
19348;DHT22;9810;52.480;9.806;2023-07-29T05:53:11;18.90;99.90
19348;DHT22;9810;52.480;9.806;2023-07-29T05:55:38;19.10;99.90
19348;DHT22;9810;52.480;9.806;2023-07-29T05:58:10;19.30;99.90
19348;DHT22;9810;52.480;9.806;2023-07-29T06:00:37;19.20;99.90
19348;DHT22;9810;52.480;9.806;2023-07-29T06:03:05;19.30;99.90
19348;DHT22;9810;52.480;9.806;2023-07-29T06:05:32;19.30;99.90
19348;DHT22;9810;52.480;9.806;2023-07-29T06:07:59;19.30;99.90
19348;DHT22;9810;52.480;9.806;2023-07-29T06:10:27;19.30;99.90
19348;DHT22;9810;52.480;9.806;2023-07-29T06:12:54;19.40;99.90
19348;DHT22;9810;52.480;9.806;2023-07-29T06:15:23;19.30;99.90
19348;DHT22;9810;52.480;9.806;2023-07-29T06:17:50;19.30;99.90
19348;DHT22;9810;52.480;9.806;2023-07-29T06:20:17;19.30;99.90
19348;DHT22;9810;52.480;9.806;2023-07-29T06:22:45;19.30;99.90
19348;DHT22;9810;52.480;9.806;2023-07-29T06:25:12;19.20;99.90
19348;DHT22;9810;52.480;9.806;2023-07-29T06:27:40;19.20;99.90
19348;DHT22;9810;52.480;9.806;2023-07-29T06:30:08;19.20;99.90
19348;DHT22;9810;52.480;9.806;2023-07-29T06:32:37;19.10;99.90
19348;DHT22;9810;52.480;9.806;2023-07-29T06:35:05;19.00;99.90
19348;DHT22;9810;52.480;9.806;2023-07-29T06:37:32;19.00;99.90
19348;DHT22;9810;52.480;9.806;2023-07-29T06:40:00;19.10;99.90
19348;DHT22;9810;52.480;9.806;2023-07-29T06:42:28;19.10;99.90
19348;DHT22;9810;52.480;9.806;2023-07-29T06:44:56;19.20;99.90
19348;DHT22;9810;52.480;9.806;2023-07-29T06:47:23;19.20;99.90
19348;DHT22;9810;52.480;9.806;2023-07-29T06:49:54;19.30;99.90
19348;DHT22;9810;52.480;9.806;2023-07-29T06:52:21;19.40;99.90
19348;DHT22;9810;52.480;9.806;2023-07-29T06:54:49;19.40;99.90
19348;DHT22;9810;52.480;9.806;2023-07-29T06:57:16;19.50;99.90
19348;DHT22;9810;52.480;9.806;2023-07-29T06:59:43;19.60;99.90
19348;DHT22;9810;52.480;9.806;2023-07-29T07:02:11;19.70;99.90
19348;DHT22;9810;52.480;9.806;2023-07-29T07:04:38;19.80;99.90
19348;DHT22;9810;52.480;9.806;2023-07-29T07:07:07;19.90;99.90
19348;DHT22;9810;52.480;9.806;2023-07-29T07:09:35;19.90;99.90
19348;DHT22;9810;52.480;9.806;2023-07-29T07:12:02;19.90;99.90
19348;DHT22;9810;52.480;9.806;2023-07-29T07:14:30;20.10;99.90
19348;DHT22;9810;52.480;9.806;2023-07-29T07:16:57;20.20;99.90
19348;DHT22;9810;52.480;9.806;2023-07-29T07:19:25;20.10;99.90
19348;DHT22;9810;52.480;9.806;2023-07-29T07:21:52;20.20;99.90
19348;DHT22;9810;52.480;9.806;2023-07-29T07:24:21;20.30;99.90
19348;DHT22;9810;52.480;9.806;2023-07-29T07:26:49;20.60;99.90
19348;DHT22;9810;52.480;9.806;2023-07-29T07:29:19;20.50;99.90
19348;DHT22;9810;52.480;9.806;2023-07-29T07:31:50;20.50;99.90
19348;DHT22;9810;52.480;9.806;2023-07-29T07:34:18;20.50;99.90
19348;DHT22;9810;52.480;9.806;2023-07-29T07:36:46;20.60;99.90
19348;DHT22;9810;52.480;9.806;2023-07-29T07:39:13;20.50;99.90
19348;DHT22;9810;52.480;9.806;2023-07-29T07:41:42;20.50;99.90
19348;DHT22;9810;52.480;9.806;2023-07-29T07:44:10;20.50;99.90
19348;DHT22;9810;52.480;9.806;2023-07-29T07:46:41;20.40;99.90
19348;DHT22;9810;52.480;9.806;2023-07-29T07:49:08;20.40;99.90
19348;DHT22;9810;52.480;9.806;2023-07-29T07:51:35;20.40;99.90
19348;DHT22;9810;52.480;9.806;2023-07-29T07:54:03;20.40;99.90
19348;DHT22;9810;52.480;9.806;2023-07-29T07:56:30;20.40;99.90
19348;DHT22;9810;52.480;9.806;2023-07-29T07:58:59;20.60;99.90
19348;DHT22;9810;52.480;9.806;2023-07-29T08:01:27;20.80;99.90
19348;DHT22;9810;52.480;9.806;2023-07-29T08:03:54;20.90;99.90
19348;DHT22;9810;52.480;9.806;2023-07-29T08:06:21;21.00;99.90
19348;DHT22;9810;52.480;9.806;2023-07-29T08:08:49;21.10;99.90
19348;DHT22;9810;52.480;9.806;2023-07-29T08:11:16;21.10;99.90
19348;DHT22;9810;52.480;9.806;2023-07-29T08:13:43;21.10;99.90
19348;DHT22;9810;52.480;9.806;2023-07-29T08:16:12;21.20;99.90
19348;DHT22;9810;52.480;9.806;2023-07-29T08:18:40;21.20;99.90
19348;DHT22;9810;52.480;9.806;2023-07-29T08:21:10;21.20;99.90
19348;DHT22;9810;52.480;9.806;2023-07-29T08:23:38;21.30;99.90
19348;DHT22;9810;52.480;9.806;2023-07-29T08:26:05;21.30;99.90
19348;DHT22;9810;52.480;9.806;2023-07-29T08:28:34;21.30;99.90
19348;DHT22;9810;52.480;9.806;2023-07-29T08:31:02;21.20;99.90
19348;DHT22;9810;52.480;9.806;2023-07-29T08:33:31;21.20;99.90
19348;DHT22;9810;52.480;9.806;2023-07-29T08:36:00;21.20;99.90
19348;DHT22;9810;52.480;9.806;2023-07-29T08:38:27;21.20;99.90
19348;DHT22;9810;52.480;9.806;2023-07-29T08:41:03;21.30;99.90
19348;DHT22;9810;52.480;9.806;2023-07-29T08:43:33;21.40;99.90
19348;DHT22;9810;52.480;9.806;2023-07-29T08:46:01;21.30;99.90
19348;DHT22;9810;52.480;9.806;2023-07-29T08:48:33;21.30;99.90
19348;DHT22;9810;52.480;9.806;2023-07-29T08:51:04;21.20;99.90
19348;DHT22;9810;52.480;9.806;2023-07-29T08:53:32;21.20;99.90
19348;DHT22;9810;52.480;9.806;2023-07-29T08:55:59;21.20;99.90
19348;DHT22;9810;52.480;9.806;2023-07-29T08:58:27;21.10;99.90
19348;DHT22;9810;52.480;9.806;2023-07-29T09:00:55;21.20;99.90
19348;DHT22;9810;52.480;9.806;2023-07-29T09:03:23;21.20;99.90
19348;DHT22;9810;52.480;9.806;2023-07-29T09:05:53;21.10;99.90
19348;DHT22;9810;52.480;9.806;2023-07-29T09:08:23;21.00;99.90
19348;DHT22;9810;52.480;9.806;2023-07-29T09:10:53;21.10;99.90
19348;DHT22;9810;52.480;9.806;2023-07-29T09:13:21;21.20;99.90
19348;DHT22;9810;52.480;9.806;2023-07-29T09:15:49;21.20;99.90
19348;DHT22;9810;52.480;9.806;2023-07-29T09:18:18;21.30;99.90
19348;DHT22;9810;52.480;9.806;2023-07-29T09:20:46;21.40;99.90
19348;DHT22;9810;52.480;9.806;2023-07-29T09:23:16;21.50;99.90
19348;DHT22;9810;52.480;9.806;2023-07-29T09:25:46;21.50;99.90
19348;DHT22;9810;52.480;9.806;2023-07-29T09:28:15;21.60;99.90
19348;DHT22;9810;52.480;9.806;2023-07-29T09:30:45;21.70;99.90
19348;DHT22;9810;52.480;9.806;2023-07-29T09:33:14;21.90;99.90
19348;DHT22;9810;52.480;9.806;2023-07-29T09:35:42;22.10;99.90
19348;DHT22;9810;52.480;9.806;2023-07-29T09:38:16;22.30;99.90
19348;DHT22;9810;52.480;9.806;2023-07-29T09:40:43;22.80;99.90
19348;DHT22;9810;52.480;9.806;2023-07-29T09:43:11;23.00;99.90
19348;DHT22;9810;52.480;9.806;2023-07-29T09:45:39;23.40;99.90
19348;DHT22;9810;52.480;9.806;2023-07-29T09:48:06;23.60;99.90
19348;DHT22;9810;52.480;9.806;2023-07-29T09:50:36;23.40;99.90
19348;DHT22;9810;52.480;9.806;2023-07-29T09:53:04;23.90;99.90
19348;DHT22;9810;52.480;9.806;2023-07-29T09:55:35;23.90;99.90
19348;DHT22;9810;52.480;9.806;2023-07-29T09:58:03;23.50;99.90
19348;DHT22;9810;52.480;9.806;2023-07-29T10:00:34;23.10;99.90
19348;DHT22;9810;52.480;9.806;2023-07-29T10:03:01;22.50;99.90
19348;DHT22;9810;52.480;9.806;2023-07-29T10:05:29;22.40;99.90
19348;DHT22;9810;52.480;9.806;2023-07-29T10:07:56;22.40;99.90
19348;DHT22;9810;52.480;9.806;2023-07-29T10:10:24;22.00;99.90
19348;DHT22;9810;52.480;9.806;2023-07-29T10:12:54;21.80;99.90
19348;DHT22;9810;52.480;9.806;2023-07-29T10:15:24;21.90;99.90
19348;DHT22;9810;52.480;9.806;2023-07-29T10:17:52;21.80;99.90
19348;DHT22;9810;52.480;9.806;2023-07-29T10:20:19;21.90;99.90
19348;DHT22;9810;52.480;9.806;2023-07-29T10:22:47;21.90;99.90
19348;DHT22;9810;52.480;9.806;2023-07-29T10:25:17;22.10;99.90
19348;DHT22;9810;52.480;9.806;2023-07-29T10:27:47;22.00;99.90
19348;DHT22;9810;52.480;9.806;2023-07-29T10:30:17;22.20;99.90
19348;DHT22;9810;52.480;9.806;2023-07-29T10:32:46;22.20;99.90
19348;DHT22;9810;52.480;9.806;2023-07-29T10:35:14;22.20;99.90
19348;DHT22;9810;52.480;9.806;2023-07-29T10:37:42;22.40;99.90
19348;DHT22;9810;52.480;9.806;2023-07-29T10:40:11;22.60;99.90
19348;DHT22;9810;52.480;9.806;2023-07-29T10:42:39;22.80;99.90
19348;DHT22;9810;52.480;9.806;2023-07-29T10:45:36;22.80;99.90
19348;DHT22;9810;52.480;9.806;2023-07-29T10:48:06;22.60;99.90
19348;DHT22;9810;52.480;9.806;2023-07-29T10:50:34;22.20;99.90
19348;DHT22;9810;52.480;9.806;2023-07-29T10:53:02;22.60;99.90
19348;DHT22;9810;52.480;9.806;2023-07-29T10:55:31;23.20;99.90
19348;DHT22;9810;52.480;9.806;2023-07-29T10:58:06;23.30;99.90
19348;DHT22;9810;52.480;9.806;2023-07-29T11:00:36;23.50;99.90
19348;DHT22;9810;52.480;9.806;2023-07-29T11:03:05;23.60;99.90
19348;DHT22;9810;52.480;9.806;2023-07-29T11:05:44;23.60;99.90
19348;DHT22;9810;52.480;9.806;2023-07-29T11:08:23;23.80;99.90
19348;DHT22;9810;52.480;9.806;2023-07-29T11:11:05;23.70;99.90
19348;DHT22;9810;52.480;9.806;2023-07-29T11:13:34;24.20;99.90
19348;DHT22;9810;52.480;9.806;2023-07-29T11:16:04;24.30;99.90
19348;DHT22;9810;52.480;9.806;2023-07-29T11:18:33;24.20;99.90
19348;DHT22;9810;52.480;9.806;2023-07-29T11:21:02;24.10;99.90
19348;DHT22;9810;52.480;9.806;2023-07-29T11:23:31;24.00;99.90
19348;DHT22;9810;52.480;9.806;2023-07-29T11:25:58;24.30;99.90
19348;DHT22;9810;52.480;9.806;2023-07-29T11:28:28;24.40;99.90
19348;DHT22;9810;52.480;9.806;2023-07-29T11:30:56;24.20;99.90
19348;DHT22;9810;52.480;9.806;2023-07-29T11:33:26;24.20;99.90
19348;DHT22;9810;52.480;9.806;2023-07-29T11:35:55;24.70;99.90
19348;DHT22;9810;52.480;9.806;2023-07-29T11:38:23;24.70;99.90
19348;DHT22;9810;52.480;9.806;2023-07-29T11:41:00;24.40;99.90
19348;DHT22;9810;52.480;9.806;2023-07-29T11:43:28;24.70;99.90
19348;DHT22;9810;52.480;9.806;2023-07-29T11:45:56;24.20;99.90
19348;DHT22;9810;52.480;9.806;2023-07-29T11:48:32;24.40;99.90
19348;DHT22;9810;52.480;9.806;2023-07-29T11:51:12;24.10;99.90
19348;DHT22;9810;52.480;9.806;2023-07-29T11:53:43;23.60;99.90
19348;DHT22;9810;52.480;9.806;2023-07-29T11:56:11;23.90;99.90
19348;DHT22;9810;52.480;9.806;2023-07-29T11:58:40;24.20;99.90
19348;DHT22;9810;52.480;9.806;2023-07-29T12:01:07;24.40;99.90
19348;DHT22;9810;52.480;9.806;2023-07-29T12:03:36;24.00;99.90
19348;DHT22;9810;52.480;9.806;2023-07-29T12:06:04;24.00;99.90
19348;DHT22;9810;52.480;9.806;2023-07-29T12:08:31;23.60;99.90
19348;DHT22;9810;52.480;9.806;2023-07-29T12:10:59;23.60;99.90
19348;DHT22;9810;52.480;9.806;2023-07-29T12:13:26;23.50;99.90
19348;DHT22;9810;52.480;9.806;2023-07-29T12:16:01;23.60;99.90
19348;DHT22;9810;52.480;9.806;2023-07-29T12:18:30;23.50;99.90
19348;DHT22;9810;52.480;9.806;2023-07-29T12:20:59;23.70;99.90
19348;DHT22;9810;52.480;9.806;2023-07-29T12:23:27;23.70;99.90
19348;DHT22;9810;52.480;9.806;2023-07-29T12:25:57;23.80;99.90
19348;DHT22;9810;52.480;9.806;2023-07-29T12:28:25;24.20;99.90
19348;DHT22;9810;52.480;9.806;2023-07-29T12:30:53;24.20;99.90
19348;DHT22;9810;52.480;9.806;2023-07-29T12:33:31;24.50;99.90
19348;DHT22;9810;52.480;9.806;2023-07-29T12:36:00;25.10;99.90
19348;DHT22;9810;52.480;9.806;2023-07-29T12:38:28;24.70;99.90
19348;DHT22;9810;52.480;9.806;2023-07-29T12:40:56;24.60;99.90
19348;DHT22;9810;52.480;9.806;2023-07-29T12:43:24;24.80;99.90
19348;DHT22;9810;52.480;9.806;2023-07-29T12:45:52;25.20;99.90
19348;DHT22;9810;52.480;9.806;2023-07-29T12:48:20;25.30;99.90
19348;DHT22;9810;52.480;9.806;2023-07-29T12:50:47;25.10;99.90
19348;DHT22;9810;52.480;9.806;2023-07-29T12:53:16;25.20;99.90
19348;DHT22;9810;52.480;9.806;2023-07-29T12:55:43;25.40;99.90
19348;DHT22;9810;52.480;9.806;2023-07-29T12:58:11;25.70;99.90
19348;DHT22;9810;52.480;9.806;2023-07-29T13:00:38;25.80;99.90
19348;DHT22;9810;52.480;9.806;2023-07-29T13:03:05;26.10;99.90
19348;DHT22;9810;52.480;9.806;2023-07-29T13:05:32;26.30;99.90
19348;DHT22;9810;52.480;9.806;2023-07-29T13:08:00;25.30;99.90
19348;DHT22;9810;52.480;9.806;2023-07-29T13:10:29;24.60;99.90
19348;DHT22;9810;52.480;9.806;2023-07-29T13:12:56;24.00;99.90
19348;DHT22;9810;52.480;9.806;2023-07-29T13:15:24;23.70;99.90
19348;DHT22;9810;52.480;9.806;2023-07-29T13:17:51;23.70;99.90
19348;DHT22;9810;52.480;9.806;2023-07-29T13:20:19;23.90;99.90
19348;DHT22;9810;52.480;9.806;2023-07-29T13:22:46;24.00;99.90
19348;DHT22;9810;52.480;9.806;2023-07-29T13:25:13;24.70;99.90
19348;DHT22;9810;52.480;9.806;2023-07-29T13:27:42;25.00;99.90
19348;DHT22;9810;52.480;9.806;2023-07-29T13:30:09;25.50;99.90
19348;DHT22;9810;52.480;9.806;2023-07-29T13:32:37;25.70;99.90
19348;DHT22;9810;52.480;9.806;2023-07-29T13:35:05;25.80;99.90
19348;DHT22;9810;52.480;9.806;2023-07-29T13:37:32;25.80;99.90
19348;DHT22;9810;52.480;9.806;2023-07-29T13:39:59;25.60;99.90
19348;DHT22;9810;52.480;9.806;2023-07-29T13:42:27;24.90;99.90
19348;DHT22;9810;52.480;9.806;2023-07-29T13:44:57;24.70;99.90
19348;DHT22;9810;52.480;9.806;2023-07-29T13:47:24;25.10;99.90
19348;DHT22;9810;52.480;9.806;2023-07-29T13:49:52;25.40;99.90
19348;DHT22;9810;52.480;9.806;2023-07-29T13:52:19;25.10;99.90
19348;DHT22;9810;52.480;9.806;2023-07-29T13:54:46;24.60;99.90
19348;DHT22;9810;52.480;9.806;2023-07-29T13:57:13;24.70;99.90
19348;DHT22;9810;52.480;9.806;2023-07-29T13:59:41;24.60;99.90
19348;DHT22;9810;52.480;9.806;2023-07-29T14:02:10;24.90;99.90
19348;DHT22;9810;52.480;9.806;2023-07-29T14:04:37;25.20;99.90
19348;DHT22;9810;52.480;9.806;2023-07-29T14:07:05;24.80;99.90
19348;DHT22;9810;52.480;9.806;2023-07-29T14:09:32;24.50;99.90
19348;DHT22;9810;52.480;9.806;2023-07-29T14:11:59;24.60;99.90
19348;DHT22;9810;52.480;9.806;2023-07-29T14:14:27;25.30;99.90
19348;DHT22;9810;52.480;9.806;2023-07-29T14:16:55;25.30;99.90
19348;DHT22;9810;52.480;9.806;2023-07-29T14:19:24;25.10;99.90
19348;DHT22;9810;52.480;9.806;2023-07-29T14:21:51;25.10;99.90
19348;DHT22;9810;52.480;9.806;2023-07-29T14:24:21;25.10;99.90
19348;DHT22;9810;52.480;9.806;2023-07-29T14:26:49;25.30;99.90
19348;DHT22;9810;52.480;9.806;2023-07-29T14:29:16;25.60;99.90
19348;DHT22;9810;52.480;9.806;2023-07-29T14:31:44;25.50;99.90
19348;DHT22;9810;52.480;9.806;2023-07-29T14:34:11;24.90;99.90
19348;DHT22;9810;52.480;9.806;2023-07-29T14:36:40;24.60;99.90
19348;DHT22;9810;52.480;9.806;2023-07-29T14:39:07;24.40;99.90
19348;DHT22;9810;52.480;9.806;2023-07-29T14:41:35;24.40;99.90
19348;DHT22;9810;52.480;9.806;2023-07-29T14:44:02;24.50;99.90
19348;DHT22;9810;52.480;9.806;2023-07-29T14:46:30;24.50;99.90
19348;DHT22;9810;52.480;9.806;2023-07-29T14:48:58;24.40;99.90
19348;DHT22;9810;52.480;9.806;2023-07-29T14:51:25;24.20;99.90
19348;DHT22;9810;52.480;9.806;2023-07-29T14:53:54;24.60;99.90
19348;DHT22;9810;52.480;9.806;2023-07-29T14:56:21;25.10;99.90
19348;DHT22;9810;52.480;9.806;2023-07-29T14:58:48;25.00;99.90
19348;DHT22;9810;52.480;9.806;2023-07-29T15:01:16;25.00;99.90
19348;DHT22;9810;52.480;9.806;2023-07-29T15:03:43;25.20;99.90
19348;DHT22;9810;52.480;9.806;2023-07-29T15:06:11;25.40;99.90
19348;DHT22;9810;52.480;9.806;2023-07-29T15:08:38;25.00;99.90
19348;DHT22;9810;52.480;9.806;2023-07-29T15:11:07;25.00;99.90
19348;DHT22;9810;52.480;9.806;2023-07-29T15:13:34;24.70;99.90
19348;DHT22;9810;52.480;9.806;2023-07-29T15:16:02;24.60;99.90
19348;DHT22;9810;52.480;9.806;2023-07-29T15:18:29;24.60;99.90
19348;DHT22;9810;52.480;9.806;2023-07-29T15:20:59;24.60;99.90
19348;DHT22;9810;52.480;9.806;2023-07-29T15:23:28;24.40;99.90
19348;DHT22;9810;52.480;9.806;2023-07-29T15:25:55;24.60;99.90
19348;DHT22;9810;52.480;9.806;2023-07-29T15:28:25;24.20;99.90
19348;DHT22;9810;52.480;9.806;2023-07-29T15:30:53;24.00;99.90
19348;DHT22;9810;52.480;9.806;2023-07-29T15:33:20;24.10;99.90
19348;DHT22;9810;52.480;9.806;2023-07-29T15:35:47;24.60;99.90
19348;DHT22;9810;52.480;9.806;2023-07-29T15:38:15;25.00;99.90
19348;DHT22;9810;52.480;9.806;2023-07-29T15:40:43;25.30;99.90
19348;DHT22;9810;52.480;9.806;2023-07-29T15:43:10;24.90;99.90
19348;DHT22;9810;52.480;9.806;2023-07-29T15:45:39;24.20;99.90
19348;DHT22;9810;52.480;9.806;2023-07-29T15:48:06;24.00;99.90
19348;DHT22;9810;52.480;9.806;2023-07-29T15:50:34;23.60;99.90
19348;DHT22;9810;52.480;9.806;2023-07-29T15:53:01;23.60;99.90